Time;durP1;ratioP1;P1;durP2;ratioP2;P2;SDS_P1;SDS_P2;PMS_P1;PMS_P2;Temp;Humidity;BMP_temperature;BMP_pressure;BME280_temperature;BME280_humidity;BME280_pressure;Samples;Min_cycle;Max_cycle;Signal;HPM_P1;HPM_P2
2022/12/14 00:01:19;;;;;;;23.03;13.07;;;-2.30;99.90;;;;;;4959714;28;20641;-89
2022/12/14 00:03:46;;;;;;;22.47;13.40;;;-2.30;99.90;;;;;;4948655;28;20204;-89
2022/12/14 00:06:13;;;;;;;23.77;13.87;;;-2.30;99.90;;;;;;4978065;28;20191;-89
2022/12/14 00:08:40;;;;;;;21.50;13.13;;;-2.30;99.90;;;;;;4976325;28;20238;-89
2022/12/14 00:11:06;;;;;;;24.63;14.57;;;-2.30;99.90;;;;;;4960158;28;20209;-90
2022/12/14 00:13:32;;;;;;;24.63;13.93;;;-2.30;99.90;;;;;;4957314;28;20178;-89
2022/12/14 00:16:02;;;;;;;22.17;13.73;;;-2.30;99.90;;;;;;4956716;28;20185;-90
2022/12/14 00:18:28;;;;;;;23.80;14.37;;;-2.30;99.90;;;;;;4940884;28;20197;-89
2022/12/14 00:20:54;;;;;;;25.07;14.63;;;-2.30;99.90;;;;;;4948129;29;20188;-90
2022/12/14 00:23:20;;;;;;;23.33;14.43;;;-2.30;99.90;;;;;;4947485;28;20660;-89
2022/12/14 00:25:46;;;;;;;22.80;13.67;;;-2.30;99.90;;;;;;4960109;28;20181;-90
2022/12/14 00:28:12;;;;;;;23.07;14.23;;;-2.30;99.90;;;;;;4960231;28;20205;-89
2022/12/14 00:30:38;;;;;;;21.73;13.93;;;-2.30;99.90;;;;;;4962141;28;20182;-89
2022/12/14 00:33:12;;;;;;;26.93;14.90;;;-2.30;99.90;;;;;;4964553;28;20208;-90
2022/12/14 00:35:38;;;;;;;24.50;14.50;;;-2.40;99.90;;;;;;4964420;28;20181;-89
2022/12/14 00:38:04;;;;;;;23.03;15.07;;;-2.40;99.90;;;;;;4964821;28;20224;-89
2022/12/14 00:40:29;;;;;;;26.83;15.03;;;-2.40;99.90;;;;;;4945991;28;20196;-89
2022/12/14 00:42:55;;;;;;;26.40;15.50;;;-2.40;99.90;;;;;;4959371;28;20183;-90
2022/12/14 00:45:22;;;;;;;22.13;13.57;;;-2.40;99.90;;;;;;4957921;28;20202;-90
2022/12/14 00:47:48;;;;;;;23.53;14.17;;;-2.40;99.90;;;;;;4951067;28;20331;-89
2022/12/14 00:50:14;;;;;;;23.63;14.20;;;-2.30;99.90;;;;;;4959314;28;20212;-90
2022/12/14 00:52:40;;;;;;;24.83;14.33;;;-2.30;99.90;;;;;;4956743;28;20201;-89
2022/12/14 00:55:06;;;;;;;22.90;13.63;;;-2.40;99.90;;;;;;4959164;28;20199;-90
2022/12/14 00:57:32;;;;;;;24.37;15.23;;;-2.40;99.90;;;;;;4958732;28;20232;-89
2022/12/14 01:00:25;;;;;;;26.60;14.67;;;-2.40;99.90;;;;;;4957454;28;20181;-89
2022/12/14 01:02:51;;;;;;;24.30;14.10;;;-2.40;99.90;;;;;;4943241;28;20260;-89
2022/12/14 01:05:17;;;;;;;26.90;15.73;;;-2.40;99.90;;;;;;4959324;28;20271;-89
2022/12/14 01:07:43;;;;;;;26.30;14.90;;;-2.40;99.90;;;;;;4947223;28;20572;-90
2022/12/14 01:10:09;;;;;;;25.87;15.17;;;-2.40;99.90;;;;;;4957986;28;20239;-89
2022/12/14 01:12:35;;;;;;;27.03;15.13;;;-2.40;99.90;;;;;;4958679;28;20208;-89
2022/12/14 01:15:01;;;;;;;26.63;14.83;;;-2.40;99.90;;;;;;4958420;28;20185;-89
2022/12/14 01:17:41;;;;;;;24.50;14.47;;;-2.40;99.90;;;;;;4947790;28;20793;-89
2022/12/14 01:20:07;;;;;;;23.63;14.63;;;-2.30;99.90;;;;;;4958836;28;20252;-90
2022/12/14 01:22:33;;;;;;;26.67;15.17;;;-2.30;99.90;;;;;;4942827;28;20212;-90
2022/12/14 01:24:59;;;;;;;23.83;14.10;;;-2.30;99.90;;;;;;4958575;28;20215;-89
2022/12/14 01:27:25;;;;;;;23.97;14.60;;;-2.30;99.90;;;;;;4958055;28;20208;-89
2022/12/14 01:29:50;;;;;;;25.53;14.10;;;-2.20;99.90;;;;;;4954753;28;20216;-89
2022/12/14 01:32:18;;;;;;;24.30;13.63;;;-2.20;99.90;;;;;;4957795;28;20207;-89
2022/12/14 01:34:44;;;;;;;23.20;14.63;;;-2.20;99.90;;;;;;4957874;28;20177;-89
2022/12/14 01:37:10;;;;;;;25.60;14.80;;;-2.20;99.90;;;;;;4956800;28;20196;-90
2022/12/14 01:39:36;;;;;;;24.27;15.37;;;-2.20;99.90;;;;;;4949469;28;20184;-89
2022/12/14 01:42:02;;;;;;;23.57;14.50;;;-2.20;99.90;;;;;;4941957;29;20272;-89
2022/12/14 01:44:28;;;;;;;25.27;15.03;;;-2.10;99.90;;;;;;4957980;28;20208;-90
2022/12/14 01:47:13;;;;;;;26.97;15.63;;;-2.10;99.90;;;;;;4957410;28;20196;-89
2022/12/14 01:50:01;;;;;;;25.43;13.97;;;-2.10;99.90;;;;;;4956658;28;20207;-89
2022/12/14 01:52:45;;;;;;;23.77;14.07;;;-2.20;99.90;;;;;;4948428;28;20200;-89
2022/12/14 01:55:25;;;;;;;24.20;14.70;;;-2.20;99.90;;;;;;4957457;28;20200;-89
2022/12/14 01:57:58;;;;;;;23.73;14.87;;;-2.20;99.90;;;;;;4954690;28;20211;-89
2022/12/14 02:00:24;;;;;;;22.73;14.70;;;-2.20;99.90;;;;;;4957954;28;20231;-89
2022/12/14 02:03:28;;;;;;;24.17;14.93;;;-2.20;99.90;;;;;;4957442;28;20212;-89
2022/12/14 02:06:01;;;;;;;24.03;14.23;;;-2.20;99.90;;;;;;4957320;28;20242;-89
2022/12/14 02:08:28;;;;;;;25.30;15.03;;;-2.10;99.90;;;;;;4957005;28;20209;-89
2022/12/14 02:10:54;;;;;;;23.27;14.93;;;-2.10;99.90;;;;;;4957733;28;20188;-90
2022/12/14 02:13:25;;;;;;;24.53;16.03;;;-2.10;99.90;;;;;;4969227;28;20178;-89
2022/12/14 02:15:51;;;;;;;25.93;15.00;;;-2.10;99.90;;;;;;4958060;28;20177;-90
2022/12/14 02:18:24;;;;;;;25.23;14.57;;;-2.10;99.90;;;;;;4957404;28;20199;-90
2022/12/14 02:21:01;;;;;;;24.07;14.10;;;-2.10;99.90;;;;;;4956824;28;20185;-89
2022/12/14 02:23:42;;;;;;;26.77;15.63;;;-2.10;99.90;;;;;;4957458;28;20303;-90
2022/12/14 02:26:08;;;;;;;28.67;15.90;;;-2.10;99.90;;;;;;4956232;28;20188;-89
2022/12/14 02:29:07;;;;;;;27.93;16.50;;;-2.10;99.90;;;;;;4947507;28;20176;-89
2022/12/14 02:32:12;;;;;;;24.43;15.10;;;-2.10;99.90;;;;;;4973396;28;20200;-89
2022/12/14 02:35:17;;;;;;;29.00;16.53;;;-2.20;99.90;;;;;;4957506;28;20181;-89
2022/12/14 02:38:10;;;;;;;28.13;15.53;;;-2.10;99.90;;;;;;4943205;28;20212;-89
2022/12/14 02:41:18;;;;;;;23.30;14.10;;;-2.10;99.90;;;;;;4956813;28;20176;-89
2022/12/14 02:44:08;;;;;;;25.63;15.83;;;-2.10;99.90;;;;;;4932828;28;20201;-89
2022/12/14 02:46:45;;;;;;;26.67;15.60;;;-2.10;99.90;;;;;;4938924;28;20216;-90
2022/12/14 02:49:26;;;;;;;27.53;16.03;;;-2.10;99.90;;;;;;4956446;28;20180;-89
2022/12/14 02:52:04;;;;;;;25.20;16.37;;;-2.00;99.90;;;;;;4973337;28;20254;-90
2022/12/14 02:54:53;;;;;;;25.47;15.37;;;-2.10;99.90;;;;;;4956891;28;20199;-89
2022/12/14 02:57:42;;;;;;;27.93;14.83;;;-2.00;99.90;;;;;;4962200;28;20219;-90
2022/12/14 03:00:09;;;;;;;26.03;15.40;;;-2.10;99.90;;;;;;4956833;28;20197;-89
2022/12/14 03:02:41;;;;;;;26.43;14.73;;;-2.00;99.90;;;;;;4956764;28;20191;-89
2022/12/14 03:05:09;;;;;;;26.17;15.93;;;-2.00;99.90;;;;;;4956991;28;20176;-89
2022/12/14 03:07:38;;;;;;;22.70;14.67;;;-2.00;99.90;;;;;;4956625;28;20263;-90
2022/12/14 03:10:19;;;;;;;24.37;14.70;;;-2.10;99.90;;;;;;4940869;28;20177;-90
2022/12/14 03:13:07;;;;;;;22.73;13.67;;;-2.10;99.90;;;;;;4956348;28;20661;-89
2022/12/14 03:15:36;;;;;;;23.00;15.20;;;-2.10;99.90;;;;;;4957053;28;20203;-89
2022/12/14 03:18:05;;;;;;;27.43;15.17;;;-2.00;99.90;;;;;;4956310;28;20203;-90
2022/12/14 03:20:34;;;;;;;26.73;15.60;;;-2.00;99.90;;;;;;4957171;28;20192;-90
2022/12/14 03:23:02;;;;;;;26.07;16.03;;;-2.00;99.90;;;;;;4956468;28;20176;-90
2022/12/14 03:26:01;;;;;;;25.20;14.93;;;-2.00;99.90;;;;;;4953883;28;20208;-89
2022/12/14 03:28:52;;;;;;;26.40;14.17;;;-2.10;99.90;;;;;;4950373;28;20216;-89
2022/12/14 03:31:56;;;;;;;25.60;15.70;;;-2.10;99.90;;;;;;4956944;28;20212;-90
2022/12/14 03:34:28;;;;;;;25.47;15.80;;;-2.10;99.90;;;;;;4945084;28;20176;-89
2022/12/14 03:37:37;;;;;;;26.70;16.50;;;-2.10;99.90;;;;;;4960089;28;20204;-90
2022/12/14 03:40:06;;;;;;;23.83;15.33;;;-2.10;99.90;;;;;;4936789;28;20180;-89
2022/12/14 03:42:50;;;;;;;27.80;16.33;;;-2.10;99.90;;;;;;4960091;28;20183;-89
2022/12/14 03:45:31;;;;;;;25.43;16.40;;;-2.00;99.90;;;;;;4952252;28;20260;-89
2022/12/14 03:48:00;;;;;;;28.40;17.03;;;-2.00;99.90;;;;;;4947045;28;20732;-90
2022/12/14 03:50:37;;;;;;;28.13;16.87;;;-2.00;99.90;;;;;;4957040;28;20187;-89
2022/12/14 03:53:27;;;;;;;28.03;15.70;;;-2.00;99.90;;;;;;4957154;28;20200;-89
2022/12/14 03:56:07;;;;;;;25.33;15.57;;;-2.00;99.90;;;;;;4952508;28;20251;-89
2022/12/14 03:58:48;;;;;;;26.70;16.80;;;-2.00;99.90;;;;;;4959478;28;20203;-90
2022/12/14 04:01:14;;;;;;;29.90;17.67;;;-1.90;99.90;;;;;;4947113;29;20189;-89
2022/12/14 04:04:38;;;;;;;26.73;17.67;;;-1.90;99.90;;;;;;5086136;27;20539;-91
2022/12/14 04:07:24;;;;;;;28.13;17.07;;;-1.90;99.90;;;;;;5035694;28;20181;-90
2022/12/14 04:10:02;;;;;;;25.93;15.53;;;-1.90;99.90;;;;;;5052825;28;20292;-90
2022/12/14 04:19:00;;;;;;;24.73;15.33;;;-1.80;99.90;;;;;;5069500;28;20177;-91
2022/12/14 04:21:29;;;;;;;27.83;17.20;;;-1.80;99.90;;;;;;5052368;28;20209;-91
2022/12/14 04:26:54;;;;;;;26.73;16.43;;;-1.80;99.90;;;;;;5049784;28;20189;-90
2022/12/14 04:32:58;;;;;;;27.27;16.33;;;-1.80;99.90;;;;;;5058957;28;20190;-91
2022/12/14 04:35:37;;;;;;;26.10;15.90;;;-1.80;99.90;;;;;;5041059;28;20194;-90
2022/12/14 04:38:12;;;;;;;33.13;18.70;;;-1.80;99.90;;;;;;5050213;28;20205;-90
2022/12/14 04:40:49;;;;;;;31.03;18.83;;;-1.80;99.90;;;;;;5046527;28;20287;-89
2022/12/14 04:43:28;;;;;;;27.43;17.00;;;-1.80;99.90;;;;;;5052414;28;20205;-90
2022/12/14 04:46:09;;;;;;;31.47;18.37;;;-1.80;99.90;;;;;;5069086;28;20170;-91
2022/12/14 04:48:53;;;;;;;30.93;18.23;;;-1.80;99.90;;;;;;5068397;28;20182;-90
2022/12/14 04:51:58;;;;;;;32.47;18.40;;;-1.70;99.90;;;;;;5068465;28;20193;-89
2022/12/14 04:54:34;;;;;;;32.93;17.73;;;-1.80;99.90;;;;;;5032099;28;20186;-90
2022/12/14 04:57:04;;;;;;;30.33;18.17;;;-1.80;99.90;;;;;;5051295;28;20177;-90
2022/12/14 04:59:31;;;;;;;30.33;18.03;;;-1.80;99.90;;;;;;5055739;28;20184;-90
2022/12/14 05:02:19;;;;;;;32.37;18.03;;;-1.80;99.90;;;;;;5071597;28;20264;-89
2022/12/14 05:05:07;;;;;;;30.57;17.97;;;-1.70;99.90;;;;;;5052194;28;20676;-90
2022/12/14 05:07:51;;;;;;;31.77;17.57;;;-1.70;99.90;;;;;;5052140;28;20227;-90
2022/12/14 05:10:34;;;;;;;30.17;17.83;;;-1.70;99.90;;;;;;5048278;28;20197;-90
2022/12/14 05:13:24;;;;;;;33.33;18.23;;;-1.70;99.90;;;;;;5048481;28;20182;-90
2022/12/14 05:16:00;;;;;;;29.83;16.43;;;-1.70;99.90;;;;;;5021789;28;20197;-90
2022/12/14 05:18:26;;;;;;;29.57;17.57;;;-1.70;99.90;;;;;;5018349;28;20190;-89
2022/12/14 05:20:52;;;;;;;28.80;16.93;;;-1.70;99.90;;;;;;5027716;23;20224;-42
2022/12/14 05:23:18;;;;;;;27.63;17.07;;;-1.70;99.90;;;;;;4994563;28;20231;-42
2022/12/14 05:25:43;;;;;;;27.93;18.00;;;-1.70;99.90;;;;;;4992629;28;20291;-40
2022/12/14 05:28:10;;;;;;;30.87;18.10;;;-1.70;99.90;;;;;;4992494;28;20355;-41
2022/12/14 05:30:37;;;;;;;29.03;18.40;;;-1.70;99.90;;;;;;4994060;28;20165;-40
2022/12/14 05:35:40;;;;;;;28.07;17.43;;;-1.70;99.90;;;;;;5010738;28;20278;-34
2022/12/14 05:38:08;;;;;;;29.87;18.10;;;-1.70;99.90;;;;;;4996309;28;20183;-34
2022/12/14 05:40:34;;;;;;;31.17;18.43;;;-1.80;99.90;;;;;;4996770;28;20190;-34
2022/12/14 05:43:08;;;;;;;30.47;18.20;;;-1.80;99.90;;;;;;4996012;28;20223;-34
2022/12/14 05:45:34;;;;;;;29.70;17.40;;;-1.80;99.90;;;;;;4996324;28;20278;-34
2022/12/14 05:48:00;;;;;;;28.70;17.47;;;-1.70;99.90;;;;;;4995602;28;20266;-34
2022/12/14 05:50:25;;;;;;;29.80;17.57;;;-1.80;99.90;;;;;;4996208;28;20180;-33
2022/12/14 05:52:52;;;;;;;32.13;19.70;;;-1.70;99.90;;;;;;4979904;28;20204;-34
2022/12/14 05:55:17;;;;;;;31.50;18.00;;;-1.70;99.90;;;;;;4995935;28;20191;-34
2022/12/14 05:57:43;;;;;;;29.30;18.07;;;-1.70;99.90;;;;;;4995796;28;20251;-34
2022/12/14 06:00:10;;;;;;;34.70;19.53;;;-1.70;99.90;;;;;;4995916;28;20179;-34
2022/12/14 06:02:35;;;;;;;31.43;18.37;;;-1.70;99.90;;;;;;4995770;28;20215;-34
2022/12/14 06:05:01;;;;;;;29.03;17.67;;;-1.70;99.90;;;;;;5010646;28;20182;-34
2022/12/14 06:07:27;;;;;;;32.77;18.70;;;-1.70;99.90;;;;;;5011058;28;20207;-34
2022/12/14 06:09:53;;;;;;;36.57;18.37;;;-1.70;99.90;;;;;;4995409;28;20217;-33
2022/12/14 06:12:19;;;;;;;32.30;18.50;;;-1.70;99.90;;;;;;5011720;28;20239;-33
2022/12/14 06:14:45;;;;;;;33.93;18.60;;;-1.70;99.90;;;;;;5011697;28;20239;-33
2022/12/14 06:17:11;;;;;;;30.03;17.97;;;-1.70;99.90;;;;;;4995587;28;20176;-33
2022/12/14 06:19:37;;;;;;;32.37;20.03;;;-1.70;99.90;;;;;;4995411;28;20171;-34
2022/12/14 06:22:03;;;;;;;33.43;18.47;;;-1.70;99.90;;;;;;4995055;28;20258;-34
2022/12/14 06:24:28;;;;;;;32.47;18.10;;;-1.70;99.90;;;;;;5012870;28;20179;-34
2022/12/14 06:26:54;;;;;;;28.20;17.27;;;-1.70;99.90;;;;;;4978311;28;20180;-34
2022/12/14 06:29:20;;;;;;;30.87;17.80;;;-1.70;99.90;;;;;;4978745;28;20183;-34
2022/12/14 06:31:46;;;;;;;33.70;20.00;;;-1.60;99.90;;;;;;5011691;28;20250;-34
2022/12/14 06:34:12;;;;;;;30.67;18.87;;;-1.60;99.90;;;;;;4995019;28;20319;-33
2022/12/14 06:36:40;;;;;;;28.83;17.67;;;-1.70;99.90;;;;;;4995337;28;20175;-33
2022/12/14 06:39:12;;;;;;;31.13;17.67;;;-1.70;99.90;;;;;;4978281;28;20179;-33
2022/12/14 06:41:40;;;;;;;28.57;17.97;;;-1.70;99.90;;;;;;4978950;28;20179;-33
2022/12/14 06:44:09;;;;;;;28.37;17.83;;;-1.60;99.90;;;;;;4994264;28;20276;-34
2022/12/14 06:46:36;;;;;;;30.83;18.53;;;-1.60;99.90;;;;;;5008616;28;20643;-33
2022/12/14 06:49:03;;;;;;;27.30;18.07;;;-1.60;99.90;;;;;;4995209;28;20168;-34
2022/12/14 06:51:30;;;;;;;28.30;18.87;;;-1.50;99.90;;;;;;4994413;28;20183;-33
2022/12/14 06:53:57;;;;;;;30.97;18.33;;;-1.50;99.90;;;;;;4994027;28;20200;-34
2022/12/14 06:56:26;;;;;;;33.83;19.63;;;-1.50;99.90;;;;;;4980303;28;20287;-34
2022/12/14 06:58:56;;;;;;;34.97;20.07;;;-1.50;99.90;;;;;;5008728;28;20310;-33
2022/12/14 07:01:24;;;;;;;31.70;20.10;;;-1.50;99.90;;;;;;5011221;28;20179;-34
2022/12/14 07:03:55;;;;;;;31.17;19.20;;;-1.50;99.90;;;;;;4993790;28;20223;-34
2022/12/14 07:06:23;;;;;;;33.40;19.80;;;-1.50;99.90;;;;;;5012231;28;20222;-34
2022/12/14 07:08:57;;;;;;;30.63;17.80;;;-1.50;99.90;;;;;;4988559;28;20628;-34
2022/12/14 07:11:24;;;;;;;29.00;17.53;;;-1.50;99.90;;;;;;5011111;28;20255;-34
2022/12/14 07:13:51;;;;;;;29.20;18.53;;;-1.50;99.90;;;;;;4994706;28;20279;-33
2022/12/14 07:16:20;;;;;;;28.97;18.30;;;-1.50;99.90;;;;;;4977888;28;20184;-35
2022/12/14 07:18:49;;;;;;;28.20;17.67;;;-1.50;99.90;;;;;;4992720;28;20215;-34
2022/12/14 07:21:19;;;;;;;30.57;18.50;;;-1.50;99.90;;;;;;4975740;28;20184;-34
2022/12/14 07:23:48;;;;;;;31.43;18.20;;;-1.50;99.90;;;;;;4992384;28;20211;-33
2022/12/14 07:26:17;;;;;;;34.83;18.73;;;-1.50;99.90;;;;;;5007150;28;20274;-46
2022/12/14 07:28:45;;;;;;;29.07;18.60;;;-1.50;99.90;;;;;;4992753;28;20184;-44
2022/12/14 07:31:14;;;;;;;29.53;18.50;;;-1.50;99.90;;;;;;4993441;28;20187;-45
2022/12/14 07:33:40;;;;;;;32.90;18.93;;;-1.50;99.90;;;;;;4993470;28;20212;-45
2022/12/14 07:36:09;;;;;;;29.63;17.53;;;-1.50;99.90;;;;;;5011575;28;20201;-44
2022/12/14 07:38:37;;;;;;;32.03;19.27;;;-1.50;99.90;;;;;;4993398;28;20188;-45
2022/12/14 07:41:05;;;;;;;29.83;18.33;;;-1.40;99.90;;;;;;4993870;28;20180;-46
2022/12/14 07:43:32;;;;;;;31.37;18.47;;;-1.40;99.90;;;;;;4977349;28;20215;-44
2022/12/14 07:46:00;;;;;;;29.67;18.70;;;-1.40;99.90;;;;;;4993904;28;20163;-44
2022/12/14 07:48:26;;;;;;;32.70;19.33;;;-1.40;99.90;;;;;;4993562;28;20183;-44
2022/12/14 07:50:51;;;;;;;30.13;18.87;;;-1.30;99.90;;;;;;5010997;28;20249;-44
2022/12/14 07:53:17;;;;;;;29.20;17.90;;;-1.30;99.90;;;;;;4992547;28;20250;-49
2022/12/14 07:55:43;;;;;;;30.20;18.83;;;-1.30;99.90;;;;;;5010239;28;20175;-45
2022/12/14 07:58:09;;;;;;;26.87;17.03;;;-1.30;99.90;;;;;;4993380;28;20191;-44
2022/12/14 08:00:35;;;;;;;30.83;18.27;;;-1.30;99.90;;;;;;5008991;28;20202;-44
2022/12/14 08:03:00;;;;;;;28.50;18.27;;;-1.30;99.90;;;;;;4993475;28;20439;-44
2022/12/14 08:05:26;;;;;;;29.77;17.60;;;-1.30;99.90;;;;;;4976797;28;20261;-46
2022/12/14 08:07:52;;;;;;;33.10;19.70;;;-1.20;99.90;;;;;;4977476;28;20238;-45
2022/12/14 08:10:18;;;;;;;34.27;19.27;;;-1.20;99.90;;;;;;4977378;28;20207;-44
2022/12/14 08:12:44;;;;;;;30.83;18.83;;;-1.10;99.90;;;;;;4993746;28;20199;-44
2022/12/14 08:15:11;;;;;;;32.50;20.53;;;-1.10;99.90;;;;;;4993749;28;20220;-43
2022/12/14 08:17:37;;;;;;;32.47;18.90;;;-1.10;99.90;;;;;;5011631;28;20239;-45
2022/12/14 08:20:04;;;;;;;34.07;21.13;;;-1.10;99.90;;;;;;5010459;28;20187;-44
2022/12/14 08:22:30;;;;;;;32.57;20.07;;;-1.00;99.90;;;;;;4993148;28;20219;-46
2022/12/14 08:24:56;;;;;;;35.40;21.03;;;-1.00;99.90;;;;;;4993005;28;20222;-44
2022/12/14 08:27:22;;;;;;;33.90;20.63;;;-1.00;99.90;;;;;;4995747;28;20208;-44
2022/12/14 08:29:48;;;;;;;37.07;23.43;;;-1.00;99.90;;;;;;5008212;28;20191;-46
2022/12/14 08:32:16;;;;;;;32.83;21.40;;;-1.00;99.90;;;;;;4996367;28;20279;-46
2022/12/14 08:34:42;;;;;;;32.80;20.67;;;-1.00;99.90;;;;;;4996012;28;20258;-46
2022/12/14 08:37:08;;;;;;;34.50;20.63;;;-1.00;99.90;;;;;;4996058;28;20184;-46
2022/12/14 08:39:38;;;;;;;37.73;21.10;;;-1.00;99.90;;;;;;4998653;28;20198;-44
2022/12/14 08:42:04;;;;;;;36.10;22.20;;;-1.00;99.90;;;;;;4995106;28;20180;-44
2022/12/14 08:44:30;;;;;;;33.20;21.93;;;-1.00;99.90;;;;;;4979806;28;20211;-46
2022/12/14 08:47:00;;;;;;;34.03;20.90;;;-1.00;99.90;;;;;;4996347;28;20207;-47
2022/12/14 08:49:26;;;;;;;36.07;21.83;;;-0.90;99.90;;;;;;4995914;28;20250;-46
2022/12/14 08:51:52;;;;;;;36.00;22.17;;;-0.90;99.90;;;;;;4987570;28;20318;-46
2022/12/14 08:54:18;;;;;;;37.73;23.97;;;-0.90;99.90;;;;;;4982911;28;20215;-46
2022/12/14 08:56:44;;;;;;;40.13;22.07;;;-0.90;99.90;;;;;;4982767;28;20195;-47
2022/12/14 08:59:10;;;;;;;36.33;22.63;;;-0.80;99.90;;;;;;4998383;28;20258;-46
2022/12/14 09:01:36;;;;;;;36.43;23.40;;;-0.80;99.90;;;;;;4983212;28;20195;-43
2022/12/14 09:04:06;;;;;;;38.70;23.80;;;-0.80;99.90;;;;;;4998392;28;20216;-45
2022/12/14 09:06:35;;;;;;;38.67;23.07;;;-0.70;99.90;;;;;;4995900;28;20184;-46
2022/12/14 09:09:02;;;;;;;38.67;23.90;;;-0.70;99.90;;;;;;4998433;28;20188;-46
2022/12/14 09:11:28;;;;;;;37.47;23.93;;;-0.70;99.90;;;;;;4998197;28;20196;-46
2022/12/14 09:13:56;;;;;;;34.70;22.63;;;-0.70;99.90;;;;;;5014297;28;20252;-46
2022/12/14 09:16:25;;;;;;;35.53;21.47;;;-0.70;99.90;;;;;;5015171;28;20187;-46
2022/12/14 09:18:50;;;;;;;36.83;23.70;;;-0.70;99.90;;;;;;5013403;28;20182;-46
2022/12/14 09:21:17;;;;;;;39.57;24.80;;;-0.60;99.90;;;;;;4995597;28;20188;-46
2022/12/14 09:23:45;;;;;;;34.70;21.93;;;-0.60;99.90;;;;;;5013158;28;20257;-46
2022/12/14 09:26:15;;;;;;;38.40;23.73;;;-0.60;99.90;;;;;;4996829;28;20199;-46
2022/12/14 09:28:45;;;;;;;40.37;22.80;;;-0.50;99.90;;;;;;4996594;28;20173;-45
2022/12/14 09:31:13;;;;;;;34.63;21.27;;;-0.50;99.90;;;;;;4997225;28;20180;-45
2022/12/14 09:33:40;;;;;;;36.73;22.93;;;-0.50;99.90;;;;;;4996945;28;20212;-46
2022/12/14 09:36:10;;;;;;;39.93;22.77;;;-0.50;99.90;;;;;;5014423;28;20179;-46
2022/12/14 09:38:38;;;;;;;46.37;26.70;;;-0.40;99.90;;;;;;4980367;28;20185;-46
2022/12/14 09:41:31;;;;;;;48.23;29.47;;;-0.50;99.90;;;;;;4997101;28;20185;-46
2022/12/14 09:44:23;;;;;;;39.00;23.73;;;-0.50;99.90;;;;;;4994876;28;20229;-46
2022/12/14 09:46:53;;;;;;;34.30;20.80;;;-0.40;99.90;;;;;;4994977;28;20190;-45
2022/12/14 09:49:32;;;;;;;35.87;22.10;;;-0.50;99.90;;;;;;4970472;28;20176;-46
2022/12/14 09:52:01;;;;;;;33.77;20.80;;;-0.40;99.90;;;;;;4994890;28;20181;-46
2022/12/14 09:54:37;;;;;;;34.87;21.00;;;-0.40;99.90;;;;;;5007412;28;20204;-45
2022/12/14 09:57:22;;;;;;;33.03;21.17;;;-0.40;99.90;;;;;;4992764;28;20183;-45
2022/12/14 09:59:48;;;;;;;30.93;20.53;;;-0.50;99.90;;;;;;4995770;28;20279;-46
2022/12/14 10:02:49;;;;;;;34.17;22.00;;;-0.50;99.90;;;;;;5011313;28;20223;-45
2022/12/14 10:06:02;;;;;;;32.13;20.30;;;-0.40;99.90;;;;;;5021174;28;20184;-45
2022/12/14 10:08:28;;;;;;;32.47;20.37;;;-0.40;99.90;;;;;;4994299;28;20196;-46
2022/12/14 10:11:00;;;;;;;34.10;23.03;;;-0.40;99.90;;;;;;5004574;28;20180;-45
2022/12/14 10:13:54;;;;;;;40.43;24.70;;;-0.40;99.90;;;;;;5011418;28;20271;-45
2022/12/14 10:16:38;;;;;;;39.63;22.93;;;-0.40;99.90;;;;;;5004069;28;20183;-46
2022/12/14 10:19:34;;;;;;;35.57;21.70;;;-0.30;99.90;;;;;;5012406;28;20192;-44
2022/12/14 10:22:10;;;;;;;36.00;21.03;;;-0.30;99.90;;;;;;5011729;28;20188;-45
2022/12/14 10:24:45;;;;;;;34.43;20.47;;;-0.30;99.90;;;;;;5001116;28;20265;-45
2022/12/14 10:27:21;;;;;;;35.07;22.07;;;-0.20;99.90;;;;;;4979594;28;20181;-45
2022/12/14 10:29:56;;;;;;;41.67;23.93;;;-0.20;99.90;;;;;;4977457;28;20192;-46
2022/12/14 10:32:36;;;;;;;37.33;24.57;;;-0.10;99.90;;;;;;4978002;28;20274;-46
2022/12/14 10:35:11;;;;;;;39.00;23.90;;;-0.10;99.90;;;;;;4981926;28;20280;-45
2022/12/14 10:37:42;;;;;;;37.60;23.53;;;-0.10;99.90;;;;;;4985483;28;20179;-46
2022/12/14 10:40:07;;;;;;;37.93;23.10;;;0.00;99.90;;;;;;5013953;28;20687;-45
2022/12/14 10:43:20;;;;;;;43.10;24.33;;;-0.10;99.90;;;;;;4995419;28;20246;-46
2022/12/14 10:46:01;;;;;;;37.27;21.90;;;0.00;99.90;;;;;;4979931;28;20223;-46
2022/12/14 10:48:46;;;;;;;40.43;23.10;;;0.00;99.90;;;;;;4985501;28;20272;-46
2022/12/14 10:51:30;;;;;;;40.67;24.17;;;0.00;99.90;;;;;;4995873;28;20201;-46
2022/12/14 10:54:10;;;;;;;38.23;23.60;;;0.00;99.90;;;;;;4976063;28;20211;-46
2022/12/14 10:56:41;;;;;;;41.07;24.03;;;0.00;99.90;;;;;;4975931;28;20236;-43
2022/12/14 10:59:24;;;;;;;37.40;23.23;;;0.00;99.90;;;;;;4985319;28;20190;-45
2022/12/14 11:02:01;;;;;;;40.90;25.53;;;0.10;99.90;;;;;;4995438;28;20184;-44
2022/12/14 11:04:58;;;;;;;39.87;24.17;;;0.10;99.90;;;;;;4978758;28;20212;-45
2022/12/14 11:07:32;;;;;;;37.20;23.23;;;0.00;99.90;;;;;;4995507;28;20189;-45
2022/12/14 11:10:28;;;;;;;39.53;24.50;;;0.00;99.90;;;;;;5012608;28;20183;-45
2022/12/14 11:13:04;;;;;;;40.83;24.17;;;0.00;99.90;;;;;;4994247;28;20261;-45
2022/12/14 11:15:39;;;;;;;37.80;23.83;;;0.10;99.90;;;;;;4994872;28;20185;-45
2022/12/14 11:18:29;;;;;;;39.83;25.47;;;0.10;99.90;;;;;;4994423;28;20182;-45
2022/12/14 11:21:01;;;;;;;42.50;24.97;;;0.20;99.90;;;;;;5011802;28;20185;-45
2022/12/14 11:23:30;;;;;;;40.20;24.37;;;0.20;99.90;;;;;;4994057;28;20216;-45
2022/12/14 11:26:01;;;;;;;42.67;26.40;;;0.20;99.90;;;;;;5011064;28;20383;-45
2022/12/14 11:28:45;;;;;;;40.33;25.70;;;0.20;99.90;;;;;;5011042;28;20239;-44
2022/12/14 11:31:20;;;;;;;42.63;26.43;;;0.30;99.90;;;;;;5013833;28;20182;-41
2022/12/14 11:33:52;;;;;;;38.57;24.07;;;0.30;99.90;;;;;;5013011;23;20221;-87
2022/12/14 11:36:26;;;;;;;43.47;26.93;;;0.30;99.90;;;;;;4957749;28;20614;-90
2022/12/14 11:39:30;;;;;;;44.07;26.67;;;0.40;99.90;;;;;;4965649;28;20180;-90
2022/12/14 11:41:56;;;;;;;37.03;23.80;;;0.30;99.90;;;;;;4978338;28;20194;-90
2022/12/14 11:44:25;;;;;;;40.67;25.70;;;0.40;99.90;;;;;;4978157;28;20277;-91
2022/12/14 11:46:55;;;;;;;37.33;23.67;;;0.40;99.90;;;;;;4978350;28;20210;-91
2022/12/14 11:49:34;;;;;;;39.13;24.17;;;0.40;99.90;;;;;;4978403;28;20281;-91
2022/12/14 11:52:22;;;;;;;39.97;25.53;;;0.40;99.90;;;;;;4978333;28;20190;-90
2022/12/14 11:54:51;;;;;;;35.80;24.13;;;0.40;99.90;;;;;;4962420;28;20191;-90
2022/12/14 11:57:28;;;;;;;41.87;24.73;;;0.40;99.90;;;;;;4955726;28;20207;-90
2022/12/14 12:00:22;;;;;;;40.37;25.63;;;0.50;99.90;;;;;;4947783;28;20583;-89
2022/12/14 12:03:01;;;;;;;38.40;24.43;;;0.40;99.90;;;;;;4958413;28;20246;-90
2022/12/14 12:05:32;;;;;;;42.30;26.50;;;0.50;99.90;;;;;;4960040;28;20274;-90
2022/12/14 12:08:01;;;;;;;46.47;28.17;;;0.50;99.90;;;;;;4965257;28;20240;-90
2022/12/14 12:10:41;;;;;;;44.37;28.83;;;0.50;99.90;;;;;;4961007;28;20189;-91
2022/12/14 12:13:23;;;;;;;46.17;27.53;;;0.50;99.90;;;;;;4955085;28;20170;-90
2022/12/14 12:15:55;;;;;;;45.27;27.07;;;0.50;99.90;;;;;;4955131;28;20178;-91
2022/12/14 12:18:35;;;;;;;43.80;26.47;;;0.50;99.90;;;;;;4957923;28;20226;-90
2022/12/14 12:21:29;;;;;;;39.27;24.40;;;0.60;99.90;;;;;;4961153;28;20189;-90
2022/12/14 12:24:21;;;;;;;41.83;25.37;;;0.60;99.90;;;;;;4970186;28;20215;-90
2022/12/14 12:26:50;;;;;;;41.87;25.23;;;0.60;99.90;;;;;;4958650;28;20256;-91
2022/12/14 12:29:19;;;;;;;42.67;25.00;;;0.50;99.90;;;;;;4958809;28;20188;-90
2022/12/14 12:32:24;;;;;;;45.47;25.30;;;0.60;99.90;;;;;;4961024;28;20186;-90
2022/12/14 12:34:53;;;;;;;38.00;23.20;;;0.60;99.90;;;;;;4960807;28;20228;-90
2022/12/14 12:37:35;;;;;;;37.50;24.17;;;0.60;99.90;;;;;;4960935;28;20206;-90
2022/12/14 12:40:29;;;;;;;41.33;24.60;;;0.60;99.90;;;;;;4960564;28;20177;-90
2022/12/14 12:43:01;;;;;;;38.67;24.10;;;0.60;99.90;;;;;;4960518;28;20205;-90
2022/12/14 12:45:38;;;;;;;41.17;24.87;;;0.60;99.90;;;;;;4961239;28;20191;-90
2022/12/14 12:48:31;;;;;;;46.37;27.03;;;0.60;99.90;;;;;;4980043;28;20202;-90
2022/12/14 12:51:06;;;;;;;41.57;26.17;;;0.60;99.90;;;;;;4986362;28;20177;-90
2022/12/14 12:53:43;;;;;;;48.83;29.73;;;0.60;99.90;;;;;;4979743;28;20174;-90
2022/12/14 12:56:54;;;;;;;48.13;28.87;;;0.60;99.90;;;;;;4979669;28;20186;-90
2022/12/14 12:59:32;;;;;;;43.77;26.87;;;0.60;99.90;;;;;;4939324;28;20203;-90
2022/12/14 13:02:26;;;;;;;44.00;28.27;;;0.50;99.90;;;;;;4944350;28;20201;-91
2022/12/14 13:04:53;;;;;;;45.27;27.00;;;0.60;99.90;;;;;;4962375;28;20207;-90
2022/12/14 13:07:35;;;;;;;46.13;28.00;;;0.60;99.90;;;;;;4972257;28;20196;-91
2022/12/14 13:10:29;;;;;;;44.80;25.93;;;0.60;99.90;;;;;;4966163;28;20186;-90
2022/12/14 13:13:16;;;;;;;40.00;24.53;;;0.70;99.90;;;;;;4990124;28;20186;-91
2022/12/14 13:15:49;;;;;;;44.10;25.97;;;0.70;99.90;;;;;;4957465;28;20191;-90
2022/12/14 13:18:44;;;;;;;43.50;26.37;;;0.70;99.90;;;;;;4974086;28;20257;-90